Campanya meteocatpedra

Dades EMA Castellnou de Bages

?
?
Resum diari 22:30 TU
Dades diàries de l'estació meteorològica
Temperatura mitjana 22.8 °C
Temperatura màxima 32.0 °C 13:19 TU
Temperatura mínima 14.2 °C 3:46 TU
Humitat relativa mitjana 47%
Precipitació acumulada 0.0 mm
Ratxa màxima del vent (10 m) 31.3 km/h - 227º 14:40 TU
Irradiació solar global 29.4 MJ/m2

El tram horari està expressat en Temps Universal (TU). Cal sumar una hora en horari d'hivern i dues en horari d'estiu per passar a l'hora oficial.

Castellnou de Bages

Metadades estació meteorol´gica
Municipi Castellnou de Bages
Comarca Bages
Altitud 507 m
Data alta 22.01.1998
Estat actual Operativa
Dades de període
Període
TU
TM
°C
TX
°C
TN
°C
HRM
%
PPT
mm
VVM (10 m)
km/h
DVM (10 m)
graus
VVX (10 m)
km/h
RS
W/m2
00:00 - 00:30 16.2 17.0 15.6 69 0.0 3.2 33 7.9 0
00:30 - 01:00 16.2 16.5 15.7 71 0.0 3.2 29 7.9 0
01:00 - 01:30 15.5 15.6 15.4 74 0.0 3.2 15 8.6 0
01:30 - 02:00 15.4 15.6 15.2 74 0.0 5.4 10 11.9 0
02:00 - 02:30 15.4 15.5 15.1 76 0.0 3.6 11 11.5 0
02:30 - 03:00 14.9 15.1 14.7 78 0.0 1.4 348 8.3 0
03:00 - 03:30 15.0 15.1 14.8 78 0.0 5.0 11 13.0 0
03:30 - 04:00 14.6 14.9 14.2 79 0.0 5.8 340 10.4 0
04:00 - 04:30 15.3 15.6 14.9 75 0.0 8.6 1 11.9 1
04:30 - 05:00 14.9 15.6 14.6 77 0.0 1.4 185 4.7 29
05:00 - 05:30 15.3 15.9 14.7 77 0.0 0.7 58 3.2 88
05:30 - 06:00 17.0 17.7 16.1 70 0.0 1.8 25 5.8 172
06:00 - 06:30 17.9 18.6 17.2 67 0.0 3.2 22 9.7 267
06:30 - 07:00 19.3 20.1 18.7 59 0.0 3.6 9 9.0 368
07:00 - 07:30 20.6 21.1 20.1 53 0.0 4.0 46 10.8 469
07:30 - 08:00 21.3 23.1 20.4 51 0.0 4.0 76 9.0 564
08:00 - 08:30 23.9 24.7 23.0 46 0.0 4.0 173 9.4 650
08:30 - 09:00 25.1 25.5 24.4 42 0.0 3.2 133 8.6 732
09:00 - 09:30 25.9 26.7 24.6 41 0.0 3.6 153 12.6 806
09:30 - 10:00 27.5 28.4 26.3 35 0.0 5.0 189 14.0 874
10:00 - 10:30 28.4 29.4 27.8 32 0.0 6.8 194 16.6 927
10:30 - 11:00 29.1 29.9 28.5 31 0.0 6.8 136 18.0 961
11:00 - 11:30 29.9 30.4 29.7 28 0.0 10.8 230 25.2 988
11:30 - 12:00 30.1 30.8 29.4 27 0.0 8.6 204 21.6 1.003
12:00 - 12:30 30.5 31.4 29.7 27 0.0 9.4 231 17.6 988
12:30 - 13:00 30.6 31.4 29.8 26 0.0 7.9 165 21.6 849
13:00 - 13:30 31.3 32.0 30.7 25 0.0 8.6 204 19.8 846
13:30 - 14:00 29.6 31.4 28.2 27 0.0 9.4 152 24.8 483
14:00 - 14:30 31.0 31.5 30.3 26 0.0 13.7 185 27.0 775
14:30 - 15:00 31.1 31.6 30.7 25 0.0 15.8 196 31.3 758
15:00 - 15:30 30.4 31.0 29.9 25 0.0 17.3 196 29.5 674
15:30 - 16:00 29.8 30.3 29.5 25 0.0 14.8 174 29.9 588
16:00 - 16:30 29.3 29.9 28.9 25 0.0 15.8 164 27.4 491
16:30 - 17:00 28.5 28.9 27.9 25 0.0 15.5 171 29.5 394
17:00 - 17:30 27.3 27.8 26.8 26 0.0 15.1 179 27.7 295
17:30 - 18:00 26.1 26.8 25.5 28 0.0 13.7 180 25.6 199
18:00 - 18:30 24.6 25.5 23.7 33 0.0 11.5 178 21.2 109
18:30 - 19:00 23.0 23.6 22.4 39 0.0 8.6 186 15.5 30
19:00 - 19:30 21.6 22.3 21.2 42 0.0 6.5 202 11.5 2
19:30 - 20:00 20.9 21.2 20.6 44 0.0 6.5 197 10.1 0
20:00 - 20:30 20.5 20.7 20.3 45 0.0 5.8 193 9.7 0
20:30 - 21:00 20.1 20.3 19.9 46 0.0 4.7 181 7.9 0
21:00 - 21:30 19.6 19.9 18.5 48 0.0 2.2 203 5.4 0
21:30 - 22:00 18.6 19.3 18.4 51 0.0 1.4 41 4.3 0
22:00 - 22:30 18.5 19.4 17.6 52 0.0 1.1 229 3.6 0
22:30 - 23:00 (s/d) (s/d) (s/d) (s/d) (s/d) (s/d) (s/d) (s/d) (s/d)

Les dades en taronja només han passat un control de qualitat automàtic. Resta pendent la seva validació definitiva.